createdAt,value
2018-09-22T00:02:09.086Z,14.50
2018-09-22T00:04:36.113Z,14.06
2018-09-22T00:07:03.052Z,14.31
2018-09-22T00:09:29.999Z,14.19
2018-09-22T00:11:56.957Z,14.31
2018-09-22T00:14:23.871Z,14.25
2018-09-22T00:16:50.867Z,14.38
2018-09-22T00:19:17.818Z,14.25
2018-09-22T00:21:44.937Z,14.25
2018-09-22T00:24:11.948Z,14.38
2018-09-22T00:26:38.884Z,14.19
2018-09-22T00:29:05.904Z,14.19
2018-09-22T00:31:32.804Z,14.31
2018-09-22T00:33:59.749Z,14.38
2018-09-22T00:36:26.664Z,14.38
2018-09-22T00:38:53.632Z,14.63
2018-09-22T00:41:20.652Z,14.31
2018-09-22T00:43:47.572Z,14.50
2018-09-22T00:46:14.562Z,14.38
2018-09-22T00:48:41.521Z,14.44
2018-09-22T00:51:08.429Z,14.44
2018-09-22T00:53:35.362Z,14.44
2018-09-22T00:56:02.577Z,14.38
2018-09-22T00:58:29.548Z,14.13
2018-09-22T01:00:56.478Z,14.31
2018-09-22T01:03:23.416Z,14.13
2018-09-22T01:05:50.311Z,14.25
2018-09-22T01:08:17.227Z,14.06
2018-09-22T01:10:44.187Z,13.94
2018-09-22T01:13:11.296Z,14.00
2018-09-22T01:15:38.219Z,14.25
2018-09-22T01:18:05.518Z,13.81
2018-09-22T01:20:32.440Z,13.94
2018-09-22T01:22:59.360Z,14.13
2018-09-22T01:25:26.284Z,14.19
2018-09-22T01:27:53.212Z,14.13
2018-09-22T01:30:20.664Z,14.06
2018-09-22T01:32:48.132Z,14.25
2018-09-22T01:35:15.110Z,14.00
2018-09-22T01:37:42.045Z,14.06
2018-09-22T01:40:08.966Z,14.19
2018-09-22T01:42:36.097Z,14.19
2018-09-22T01:45:03.037Z,14.13
2018-09-22T01:47:30.029Z,13.88
2018-09-22T01:49:56.974Z,14.06
2018-09-22T01:52:23.975Z,14.31
2018-09-22T01:54:55.077Z,14.06
2018-09-22T01:57:22.068Z,14.25
2018-09-22T01:59:49.727Z,14.00
2018-09-22T02:02:16.699Z,13.94
2018-09-22T02:04:43.615Z,13.94
2018-09-22T02:07:11.076Z,14.06
2018-09-22T02:14:32.698Z,14.13
2018-09-22T02:16:59.733Z,13.88
2018-09-22T02:19:26.624Z,13.81
2018-09-22T02:21:53.574Z,13.94
2018-09-22T02:24:21.144Z,13.69
2018-09-22T02:26:48.084Z,13.81
2018-09-22T02:29:15.032Z,13.81
2018-09-22T02:31:41.971Z,13.94
2018-09-22T02:34:08.904Z,14.00
2018-09-22T02:36:35.830Z,13.88
2018-09-22T02:39:03.917Z,14.00
2018-09-22T02:41:30.881Z,13.81
2018-09-22T02:43:57.823Z,13.75
2018-09-22T02:46:24.756Z,13.88
2018-09-22T02:48:51.668Z,13.94
2018-09-22T02:51:18.623Z,13.88
2018-09-22T02:53:45.639Z,13.69
2018-09-22T02:56:12.579Z,13.69
2018-09-22T02:58:39.543Z,13.81
2018-09-22T03:01:06.737Z,14.00
2018-09-22T03:03:33.721Z,13.75
2018-09-22T03:06:00.668Z,13.81
2018-09-22T03:08:27.608Z,13.94
2018-09-22T03:10:54.526Z,13.81
2018-09-22T03:13:21.566Z,13.81
2018-09-22T03:15:48.476Z,13.81
2018-09-22T03:18:15.660Z,13.81
2018-09-22T03:20:42.550Z,13.81
2018-09-22T03:23:09.550Z,13.81
2018-09-22T03:25:36.465Z,13.75
2018-09-22T03:28:03.770Z,13.75
2018-09-22T03:30:30.811Z,13.88
2018-09-22T03:32:57.729Z,13.88
2018-09-22T03:35:24.631Z,13.75
2018-09-22T03:37:51.589Z,13.56
2018-09-22T03:40:18.548Z,13.62
2018-09-22T03:42:45.539Z,13.88
2018-09-22T03:45:12.491Z,13.62
2018-09-22T03:47:39.403Z,13.38
2018-09-22T03:50:06.367Z,13.69
2018-09-22T03:52:33.269Z,13.69
2018-09-22T03:55:00.196Z,13.69
2018-09-22T03:57:27.094Z,13.62
2018-09-22T03:59:54.007Z,13.56
2018-09-22T04:02:20.964Z,13.69
2018-09-22T04:04:47.987Z,13.50
2018-09-22T04:07:14.955Z,13.75
2018-09-22T04:09:41.892Z,13.38
2018-09-22T04:12:09.431Z,13.50
2018-09-22T04:14:36.420Z,13.44
2018-09-22T04:17:03.406Z,13.25
2018-09-22T04:19:30.319Z,13.50
2018-09-22T04:21:57.254Z,13.38
2018-09-22T04:24:24.187Z,13.38
2018-09-22T04:26:51.545Z,13.50
2018-09-22T04:29:19.434Z,13.25
2018-09-22T04:31:46.559Z,13.31
2018-09-22T04:34:13.539Z,13.38
2018-09-22T04:36:40.795Z,13.25
2018-09-22T04:39:08.575Z,13.13
2018-09-22T04:41:36.348Z,13.06
2018-09-22T04:44:03.296Z,13.31
2018-09-22T04:46:30.312Z,13.19
2018-09-22T04:48:57.272Z,13.13
2018-09-22T04:51:24.218Z,12.75
2018-09-22T04:53:51.108Z,13.38
2018-09-22T04:56:18.015Z,13.38
2018-09-22T04:58:45.050Z,13.00
2018-09-22T05:01:11.956Z,13.19
2018-09-22T05:03:38.968Z,13.44
2018-09-22T05:06:06.056Z,13.13
2018-09-22T05:08:32.952Z,13.31
2018-09-22T05:10:59.858Z,13.44
2018-09-22T05:13:26.754Z,13.44
2018-09-22T05:15:53.647Z,13.44
2018-09-22T05:18:20.540Z,13.00
2018-09-22T05:20:47.456Z,13.00
2018-09-22T05:23:14.360Z,12.94
2018-09-22T05:25:41.289Z,12.63
2018-09-22T05:28:08.215Z,12.75
2018-09-22T05:30:35.127Z,12.56
2018-09-22T05:33:02.039Z,12.81
2018-09-22T05:35:29.019Z,12.69
2018-09-22T05:37:55.909Z,12.37
2018-09-22T05:40:22.840Z,12.69
2018-09-22T05:42:49.757Z,12.69
2018-09-22T05:45:16.748Z,12.81
2018-09-22T05:47:43.705Z,12.75
2018-09-22T05:50:10.677Z,12.75
2018-09-22T05:52:37.688Z,12.75
2018-09-22T05:55:04.636Z,12.69
2018-09-22T05:57:31.616Z,12.88
2018-09-22T05:59:58.524Z,12.88
2018-09-22T06:02:25.568Z,13.00
2018-09-22T06:04:52.523Z,13.00
2018-09-22T06:07:19.458Z,12.88
2018-09-22T06:09:46.407Z,12.81
2018-09-22T06:12:13.399Z,12.75
2018-09-22T06:14:40.351Z,13.06
2018-09-22T06:17:07.277Z,12.94
2018-09-22T06:19:34.245Z,13.06
2018-09-22T06:22:01.155Z,13.31
2018-09-22T06:24:28.059Z,13.13
2018-09-22T06:26:55.007Z,13.31
2018-09-22T06:29:21.946Z,13.19
2018-09-22T06:31:48.927Z,13.19
2018-09-22T06:34:15.919Z,13.38
2018-09-22T06:36:42.879Z,13.38
2018-09-22T06:39:10.803Z,13.25
2018-09-22T06:41:37.720Z,13.50
2018-09-22T06:44:04.640Z,13.38
2018-09-22T06:46:31.576Z,13.25
2018-09-22T06:48:58.490Z,13.44
2018-09-22T06:51:25.412Z,13.44
2018-09-22T06:53:52.430Z,13.62
2018-09-22T06:56:19.376Z,13.88
2018-09-22T06:58:46.426Z,14.00
2018-09-22T07:01:13.403Z,14.06
2018-09-22T07:03:40.321Z,14.13
2018-09-22T07:06:07.311Z,14.13
2018-09-22T07:08:34.241Z,13.88
2018-09-22T07:11:01.195Z,14.06
2018-09-22T07:13:28.119Z,14.06
2018-09-22T07:15:55.064Z,14.31
2018-09-22T07:18:21.959Z,14.31
2018-09-22T07:20:54.639Z,14.31
2018-09-22T07:23:21.612Z,14.38
2018-09-22T07:25:48.580Z,14.19
2018-09-22T07:28:15.609Z,14.56
2018-09-22T07:30:42.610Z,14.56
2018-09-22T07:33:09.602Z,14.63
2018-09-22T07:35:36.568Z,14.75
2018-09-22T07:38:03.532Z,14.63
2018-09-22T07:40:30.589Z,14.75
2018-09-22T07:42:57.517Z,14.63
2018-09-22T07:45:25.428Z,14.94
2018-09-22T07:47:52.414Z,14.87
2018-09-22T07:50:19.336Z,14.87
2018-09-22T07:52:46.315Z,14.94
2018-09-22T07:55:13.292Z,15.00
2018-09-22T07:57:40.211Z,15.06
2018-09-22T08:00:07.199Z,15.00
2018-09-22T08:02:34.130Z,15.13
2018-09-22T08:05:01.092Z,15.19
2018-09-22T08:07:27.989Z,15.25
2018-09-22T08:09:54.876Z,15.06
2018-09-22T08:12:21.792Z,15.06
2018-09-22T08:14:48.712Z,15.06
2018-09-22T08:17:15.682Z,15.25
2018-09-22T08:19:42.640Z,15.31
2018-09-22T08:22:09.588Z,15.31
2018-09-22T08:24:36.543Z,15.00
2018-09-22T08:27:04.398Z,15.31
2018-09-22T08:29:31.384Z,15.25
2018-09-22T08:31:58.352Z,15.25
2018-09-22T08:34:25.333Z,15.38
2018-09-22T08:36:52.328Z,15.31
2018-09-22T08:39:19.497Z,15.31
2018-09-22T08:41:46.554Z,15.25
2018-09-22T08:44:22.028Z,15.38
2018-09-22T08:46:48.955Z,15.38
2018-09-22T08:49:15.927Z,15.56
2018-09-22T08:51:42.859Z,15.44
2018-09-22T08:54:09.797Z,15.25
2018-09-22T08:56:36.718Z,15.38
2018-09-22T08:59:03.646Z,15.25
2018-09-22T09:01:30.551Z,15.75
2018-09-22T09:03:57.525Z,15.81
2018-09-22T09:06:24.649Z,15.75
2018-09-22T09:08:51.566Z,15.63
2018-09-22T09:11:18.617Z,15.69
2018-09-22T09:13:45.672Z,16.00
2018-09-22T09:16:12.545Z,15.81
2018-09-22T09:18:39.422Z,15.88
2018-09-22T09:21:06.343Z,15.88
2018-09-22T09:23:33.235Z,15.63
2018-09-22T09:26:00.120Z,16.06
2018-09-22T09:28:26.990Z,16.44
2018-09-22T09:30:53.889Z,16.87
2018-09-22T09:33:20.805Z,16.31
2018-09-22T09:35:47.675Z,16.31
2018-09-22T09:38:14.539Z,16.19
2018-09-22T09:40:41.443Z,16.81
2018-09-22T09:43:08.385Z,17.37
2018-09-22T09:45:35.331Z,17.31
2018-09-22T09:48:02.235Z,17.50
2018-09-22T09:50:29.139Z,17.87
2018-09-22T09:52:56.061Z,17.37
2018-09-22T09:55:22.985Z,17.81
2018-09-22T09:57:49.903Z,16.44
2018-09-22T10:00:21.473Z,16.81
2018-09-22T10:02:48.388Z,16.75
2018-09-22T10:05:15.359Z,16.62
2018-09-22T10:07:42.360Z,16.75
2018-09-22T10:10:09.333Z,16.50
2018-09-22T10:12:36.246Z,16.75
2018-09-22T10:15:03.198Z,17.06
2018-09-22T10:17:30.110Z,16.94
2018-09-22T10:19:57.014Z,16.87
2018-09-22T10:22:23.938Z,17.06
2018-09-22T10:24:50.870Z,17.06
2018-09-22T10:27:17.780Z,16.62
2018-09-22T10:29:44.769Z,16.50
2018-09-22T10:32:11.665Z,16.37
2018-09-22T10:34:38.600Z,17.06
2018-09-22T10:37:05.642Z,16.87
2018-09-22T10:39:32.563Z,17.44
2018-09-22T10:41:59.482Z,16.94
2018-09-22T10:44:26.463Z,16.94
2018-09-22T10:46:53.437Z,17.25
2018-09-22T10:49:20.392Z,16.75
2018-09-22T10:51:47.339Z,17.12
2018-09-22T10:54:14.272Z,16.81
2018-09-22T10:56:41.218Z,16.69
2018-09-22T10:59:08.166Z,16.81
2018-09-22T11:01:35.138Z,17.00
2018-09-22T11:04:02.067Z,17.37
2018-09-22T11:06:29.056Z,17.62
2018-09-22T11:08:55.932Z,17.50
2018-09-22T11:11:22.889Z,17.00
2018-09-22T11:13:49.833Z,16.81
2018-09-22T11:21:08.975Z,17.44
2018-09-22T11:23:35.847Z,17.94
2018-09-22T11:26:02.741Z,17.62
2018-09-22T11:28:29.641Z,17.62
2018-09-22T11:30:56.551Z,17.44
2018-09-22T11:33:23.423Z,17.62
2018-09-22T11:35:50.355Z,17.25
2018-09-22T11:38:17.341Z,17.19
2018-09-22T11:40:44.187Z,17.44
2018-09-22T11:43:12.294Z,17.12
2018-09-22T11:45:39.226Z,17.06
2018-09-22T11:48:06.136Z,16.81
2018-09-22T11:50:33.080Z,17.12
2018-09-22T11:52:59.968Z,17.06
2018-09-22T11:55:26.902Z,17.31
2018-09-22T11:57:53.811Z,17.44
2018-09-22T12:00:20.703Z,17.81
2018-09-22T12:02:47.603Z,17.69
2018-09-22T12:05:14.509Z,17.94
2018-09-22T12:07:41.424Z,17.69
2018-09-22T12:10:08.355Z,17.69
2018-09-22T12:12:35.265Z,17.44
2018-09-22T12:15:02.199Z,17.69
2018-09-22T12:17:29.188Z,18.06
2018-09-22T12:19:56.123Z,17.56
2018-09-22T12:22:22.998Z,17.81
2018-09-22T12:24:49.941Z,17.75
2018-09-22T12:27:16.807Z,18.06
2018-09-22T12:29:43.708Z,17.69
2018-09-22T12:32:10.636Z,18.00
2018-09-22T12:34:37.597Z,17.81
2018-09-22T12:37:04.538Z,17.81
2018-09-22T12:39:31.418Z,17.62
2018-09-22T12:41:58.296Z,18.25
2018-09-22T12:44:25.207Z,18.25
2018-09-22T12:46:52.139Z,18.62
2018-09-22T12:49:19.008Z,18.62
2018-09-22T12:51:45.940Z,18.62
2018-09-22T12:54:12.814Z,18.25
2018-09-22T12:56:39.698Z,17.94
2018-09-22T12:59:06.599Z,17.81
2018-09-22T13:01:33.515Z,18.12
2018-09-22T13:04:00.437Z,18.06
2018-09-22T13:06:27.391Z,18.25
2018-09-22T13:08:54.509Z,18.19
2018-09-22T13:11:22.551Z,18.25
2018-09-22T13:13:54.406Z,18.19
2018-09-22T13:16:21.449Z,17.94
2018-09-22T13:18:48.457Z,18.19
2018-09-22T13:21:15.455Z,18.00
2018-09-22T13:23:42.401Z,18.37
2018-09-22T13:26:09.337Z,17.81
2018-09-22T13:28:36.364Z,18.25
2018-09-22T13:31:03.369Z,18.25
2018-09-22T13:33:30.355Z,18.06
2018-09-22T13:35:57.435Z,18.12
2018-09-22T13:38:24.444Z,18.12
2018-09-22T13:40:52.548Z,17.75
2018-09-22T13:43:19.587Z,18.00
2018-09-22T13:45:46.602Z,17.94
2018-09-22T13:48:13.643Z,18.19
2018-09-22T13:50:40.650Z,17.75
2018-09-22T13:53:07.653Z,18.12
2018-09-22T13:55:34.627Z,18.00
2018-09-22T13:58:01.636Z,17.81
2018-09-22T14:00:28.687Z,17.87
2018-09-22T14:02:55.687Z,17.81
2018-09-22T14:05:22.665Z,17.75
2018-09-22T14:07:49.672Z,17.75
2018-09-22T14:10:16.666Z,17.50
2018-09-22T14:12:43.610Z,17.62
2018-09-22T14:15:10.548Z,17.56
2018-09-22T14:17:37.539Z,17.87
2018-09-22T14:20:04.639Z,17.75
2018-09-22T14:22:31.654Z,17.69
2018-09-22T14:24:58.631Z,17.87
2018-09-22T14:27:25.620Z,18.06
2018-09-22T14:29:52.570Z,17.87
2018-09-22T14:32:19.564Z,17.62
2018-09-22T14:34:46.590Z,17.94
2018-09-22T14:37:13.622Z,17.81
2018-09-22T14:39:40.652Z,17.81
2018-09-22T14:42:07.690Z,17.50
2018-09-22T14:44:34.646Z,17.81
2018-09-22T14:47:01.696Z,17.75
2018-09-22T14:49:28.676Z,17.94
2018-09-22T14:51:55.636Z,17.87
2018-09-22T14:54:22.582Z,17.75
2018-09-22T14:56:49.659Z,17.69
2018-09-22T14:59:16.627Z,17.62
2018-09-22T15:01:43.619Z,17.44
2018-09-22T15:04:10.612Z,17.56
2018-09-22T15:06:37.655Z,17.62
2018-09-22T15:09:06.096Z,17.44
2018-09-22T15:11:33.156Z,17.62
2018-09-22T15:14:01.121Z,17.56
2018-09-22T15:16:28.642Z,18.00
2018-09-22T15:18:55.636Z,17.62
2018-09-22T15:21:22.594Z,17.69
2018-09-22T15:23:50.219Z,17.37
2018-09-22T15:26:17.171Z,17.62
2018-09-22T15:28:44.205Z,17.62
2018-09-22T15:31:11.227Z,17.75
2018-09-22T15:33:38.208Z,17.69
2018-09-22T15:36:05.277Z,17.44
2018-09-22T15:38:32.281Z,17.50
2018-09-22T15:40:59.204Z,17.44
2018-09-22T15:43:26.269Z,17.69
2018-09-22T15:45:53.255Z,17.31
2018-09-22T15:48:20.345Z,17.56
2018-09-22T15:50:47.240Z,17.31
2018-09-22T15:53:14.216Z,17.50
2018-09-22T15:55:41.277Z,17.37
2018-09-22T15:58:08.266Z,17.31
2018-09-22T16:00:35.278Z,17.56
2018-09-22T16:03:02.308Z,17.31
2018-09-22T16:05:29.354Z,17.62
2018-09-22T16:07:56.416Z,17.25
2018-09-22T16:10:23.440Z,17.37
2018-09-22T16:12:50.467Z,17.31
2018-09-22T16:15:17.698Z,17.12
2018-09-22T16:17:44.667Z,17.31
2018-09-22T16:20:11.684Z,17.25
2018-09-22T16:22:39.625Z,17.12
2018-09-22T16:25:07.464Z,17.12
2018-09-22T16:27:34.765Z,17.31
2018-09-22T16:30:01.838Z,17.06
2018-09-22T16:32:28.989Z,17.44
2018-09-22T16:34:55.991Z,17.37
2018-09-22T16:37:22.935Z,17.06
2018-09-22T16:39:49.942Z,17.25
2018-09-22T16:42:16.907Z,17.31
2018-09-22T16:44:43.915Z,17.12
2018-09-22T16:47:10.998Z,17.25
2018-09-22T16:49:39.762Z,17.31
2018-09-22T16:52:06.726Z,17.31
2018-09-22T16:54:33.687Z,17.25
2018-09-22T16:57:00.671Z,17.12
2018-09-22T16:59:27.630Z,17.31
2018-09-22T17:01:54.656Z,17.25
2018-09-22T17:04:21.632Z,16.87
2018-09-22T17:06:48.872Z,17.06
2018-09-22T17:09:15.823Z,16.81
2018-09-22T17:11:42.743Z,16.94
2018-09-22T17:14:09.814Z,17.06
2018-09-22T17:16:36.804Z,17.06
2018-09-22T17:19:03.797Z,16.56
2018-09-22T17:21:30.742Z,16.50
2018-09-22T17:23:57.741Z,16.69
2018-09-22T17:26:24.651Z,16.69
2018-09-22T17:28:51.549Z,16.62
2018-09-22T17:31:18.644Z,17.00
2018-09-22T17:33:45.697Z,16.44
2018-09-22T17:36:12.681Z,16.31
2018-09-22T17:38:39.643Z,16.31
2018-09-22T17:41:06.597Z,16.25
2018-09-22T17:43:33.546Z,16.75
2018-09-22T17:46:00.455Z,21.69
2018-09-22T17:48:27.358Z,21.19
2018-09-22T17:50:54.309Z,21.25
2018-09-22T17:53:21.275Z,21.12
2018-09-22T17:55:48.144Z,19.75
2018-09-22T17:58:15.153Z,17.94
2018-09-22T18:00:42.072Z,17.44
2018-09-22T18:03:09.011Z,17.12
2018-09-22T18:05:35.936Z,16.81
2018-09-22T18:08:02.914Z,16.87
2018-09-22T18:10:29.808Z,16.44
2018-09-22T18:12:56.707Z,16.37
2018-09-22T18:15:23.925Z,16.44
2018-09-22T18:17:50.913Z,16.44
2018-09-22T18:20:17.827Z,16.25
2018-09-22T18:22:44.765Z,17.19
2018-09-22T18:25:11.803Z,16.50
2018-09-22T18:27:38.737Z,16.31
2018-09-22T18:30:05.679Z,16.25
2018-09-22T18:32:32.616Z,16.25
2018-09-22T18:35:00.350Z,16.12
2018-09-22T18:37:27.741Z,16.06
2018-09-22T18:39:55.125Z,15.81
2018-09-22T18:42:22.076Z,15.81
2018-09-22T18:44:49.003Z,15.63
2018-09-22T18:47:15.891Z,15.44
2018-09-22T18:49:42.812Z,15.31
2018-09-22T18:52:09.792Z,15.19
2018-09-22T18:54:36.956Z,15.25
2018-09-22T18:57:03.909Z,15.25
2018-09-22T18:59:30.878Z,15.06
2018-09-22T19:01:57.816Z,14.94
2018-09-22T19:04:25.005Z,14.94
2018-09-22T19:06:51.886Z,15.00
2018-09-22T19:09:18.803Z,14.87
2018-09-22T19:11:45.868Z,14.87
2018-09-22T19:23:11.725Z,14.81
2018-09-22T19:25:41.789Z,14.56
2018-09-22T19:29:16.061Z,14.63
2018-09-22T19:31:47.207Z,14.44
2018-09-22T19:34:17.824Z,14.44
2018-09-22T19:36:49.376Z,14.38
2018-09-22T19:39:22.526Z,14.19
2018-09-22T19:41:53.791Z,14.38
2018-09-22T19:46:30.028Z,14.19
2018-09-22T19:49:00.464Z,14.00
2018-09-22T19:51:30.618Z,14.06
2018-09-22T19:53:58.575Z,14.13
2018-09-22T19:56:25.510Z,14.13
2018-09-22T19:58:52.456Z,14.06
2018-09-22T20:01:19.383Z,14.06
2018-09-22T20:03:46.354Z,14.06
2018-09-22T20:06:13.255Z,14.06
2018-09-22T20:08:40.140Z,14.50
2018-09-22T20:11:07.224Z,14.25
2018-09-22T20:13:34.186Z,14.75
2018-09-22T20:16:01.093Z,14.63
2018-09-22T20:18:27.985Z,14.38
2018-09-22T20:20:54.915Z,14.25
2018-09-22T20:23:21.812Z,14.25
2018-09-22T20:25:49.443Z,13.81
2018-09-22T20:28:16.371Z,13.75
2018-09-22T20:30:43.280Z,13.81
2018-09-22T20:33:10.241Z,13.81
2018-09-22T20:35:37.373Z,13.69
2018-09-22T20:38:04.394Z,13.56
2018-09-22T20:40:31.305Z,13.50
2018-09-22T20:42:58.574Z,13.44
2018-09-22T20:45:25.541Z,13.44
2018-09-22T20:47:52.780Z,13.44
2018-09-22T20:50:19.719Z,13.69
2018-09-22T20:52:47.189Z,13.50
2018-09-22T20:55:14.526Z,13.44
2018-09-22T20:57:41.399Z,13.44
2018-09-22T21:00:09.351Z,13.50
2018-09-22T21:02:36.367Z,13.44
2018-09-22T21:05:03.411Z,13.44
2018-09-22T21:07:30.343Z,13.44
2018-09-22T21:09:57.240Z,13.50
2018-09-22T21:12:24.135Z,13.44
2018-09-22T21:14:51.359Z,14.50
2018-09-22T21:17:18.391Z,14.06
2018-09-22T21:19:45.480Z,14.38
2018-09-22T21:22:12.479Z,14.44
2018-09-22T21:24:39.564Z,14.19
2018-09-22T21:27:06.536Z,14.31
2018-09-22T21:29:33.531Z,14.19
2018-09-22T21:32:00.678Z,14.25
2018-09-22T21:34:27.964Z,13.94
2018-09-22T21:36:54.952Z,14.19
2018-09-22T21:39:21.913Z,14.25
2018-09-22T21:41:49.068Z,13.94
2018-09-22T21:44:16.032Z,14.06
2018-09-22T21:46:43.385Z,13.94
2018-09-22T21:49:10.378Z,13.81
2018-09-22T21:51:37.401Z,13.69
2018-09-22T21:54:04.448Z,13.75
2018-09-22T21:56:31.433Z,13.62
2018-09-22T21:58:58.460Z,13.50
2018-09-22T22:01:31.064Z,13.75
2018-09-22T22:03:58.019Z,13.69
2018-09-22T22:06:24.965Z,13.50
2018-09-22T22:08:52.147Z,13.31
2018-09-22T22:11:19.109Z,13.19
2018-09-22T22:13:46.133Z,13.25
2018-09-22T22:16:13.079Z,13.19
2018-09-22T22:18:40.057Z,13.38
2018-09-22T22:21:07.008Z,13.13
2018-09-22T22:23:33.985Z,13.38
2018-09-22T22:26:01.034Z,13.25
2018-09-22T22:28:28.012Z,13.31
2018-09-22T22:30:54.972Z,13.13
2018-09-22T22:33:22.166Z,13.31
2018-09-22T22:35:49.758Z,13.00
2018-09-22T22:38:17.004Z,13.13
2018-09-22T22:40:43.950Z,13.25
2018-09-22T22:43:10.886Z,13.25
2018-09-22T22:45:37.812Z,13.25
2018-09-22T22:48:04.889Z,13.13
2018-09-22T22:50:31.841Z,13.25
2018-09-22T22:52:59.016Z,13.06
2018-09-22T22:55:25.993Z,13.25
2018-09-22T22:57:53.065Z,13.13
2018-09-22T23:00:19.984Z,12.94
2018-09-22T23:02:46.959Z,12.88
2018-09-22T23:05:13.921Z,13.13
2018-09-22T23:07:40.875Z,12.88
2018-09-22T23:10:07.805Z,13.00
2018-09-22T23:12:34.692Z,13.13
2018-09-22T23:15:01.690Z,13.06
2018-09-22T23:17:29.556Z,13.31
2018-09-22T23:19:56.913Z,12.88
2018-09-22T23:22:24.184Z,13.06
2018-09-22T23:24:51.104Z,13.13
2018-09-22T23:27:18.317Z,13.06
2018-09-22T23:29:45.247Z,13.13
2018-09-22T23:32:12.311Z,12.88
2018-09-22T23:34:39.443Z,12.81
2018-09-22T23:37:09.217Z,13.13
2018-09-22T23:39:36.275Z,13.13
2018-09-22T23:42:03.289Z,12.94
2018-09-22T23:44:30.323Z,12.94
2018-09-22T23:46:57.441Z,12.94
2018-09-22T23:49:24.625Z,12.75
2018-09-22T23:51:51.559Z,13.06
2018-09-22T23:54:18.592Z,13.06
2018-09-22T23:56:45.608Z,13.06
2018-09-22T23:59:12.622Z,13.19
